Time;durP1;ratioP1;P1;durP2;ratioP2;P2;SDS_P1;SDS_P2;PMS_P1;PMS_P2;Temp;Humidity;BMP_temperature;BMP_pressure;BME280_temperature;BME280_humidity;BME280_pressure;Samples;Min_cycle;Max_cycle;Signal;HPM_P1;HPM_P2
2023/05/08 00:00:03;;;;;;;22.23;18.63;;;14.90;99.90;;;;;;5021472;28;20422;-73
2023/05/08 00:02:29;;;;;;;24.50;18.60;;;15.00;99.90;;;;;;5010153;28;20199;-74
2023/05/08 00:04:55;;;;;;;22.00;18.70;;;15.00;99.90;;;;;;5011118;28;20420;-74
2023/05/08 00:07:20;;;;;;;20.03;17.67;;;15.00;99.90;;;;;;5027469;28;20429;-73
2023/05/08 00:09:46;;;;;;;21.97;18.50;;;15.00;99.90;;;;;;5010098;28;20232;-72
2023/05/08 00:12:11;;;;;;;17.47;15.67;;;15.10;99.90;;;;;;5009889;28;20246;-73
2023/05/08 00:14:37;;;;;;;17.07;15.23;;;15.00;99.90;;;;;;5013455;28;20213;-74
2023/05/08 00:17:02;;;;;;;19.63;17.53;;;15.00;99.90;;;;;;5015960;28;20178;-74
2023/05/08 00:19:28;;;;;;;20.57;17.30;;;14.90;99.90;;;;;;5018456;28;20309;-74
2023/05/08 00:21:54;;;;;;;21.63;15.70;;;14.90;99.90;;;;;;5023543;28;20224;-73
2023/05/08 00:24:19;;;;;;;19.60;17.80;;;14.90;99.90;;;;;;5010806;28;20289;-74
2023/05/08 00:26:45;;;;;;;19.30;16.67;;;14.90;99.90;;;;;;5004234;28;20182;-72
2023/05/08 00:29:11;;;;;;;19.97;16.50;;;14.90;99.90;;;;;;5030038;28;20177;-74
2023/05/08 00:31:36;;;;;;;18.17;16.27;;;14.90;99.90;;;;;;5021465;28;20249;-74
2023/05/08 00:34:02;;;;;;;19.47;16.50;;;14.90;99.90;;;;;;5016337;28;20260;-74
2023/05/08 00:36:27;;;;;;;20.07;16.30;;;14.90;99.90;;;;;;5028630;28;20213;-73
2023/05/08 00:38:53;;;;;;;20.00;17.90;;;14.90;99.90;;;;;;5025532;28;20198;-74
2023/05/08 00:41:18;;;;;;;17.47;15.70;;;14.90;99.90;;;;;;5026811;28;20202;-74
2023/05/08 00:43:44;;;;;;;20.40;15.63;;;14.90;99.90;;;;;;5018412;28;20183;-73
2023/05/08 00:46:10;;;;;;;23.33;17.20;;;14.90;99.90;;;;;;5018470;28;20193;-74
2023/05/08 00:48:38;;;;;;;22.40;17.10;;;14.90;99.90;;;;;;5019211;28;20194;-75
2023/05/08 00:51:05;;;;;;;20.17;16.67;;;14.90;99.90;;;;;;5009950;28;20450;-75
2023/05/08 00:53:41;;;;;;;19.77;16.73;;;14.90;99.90;;;;;;5010415;28;20421;-74
2023/05/08 00:56:11;;;;;;;19.50;17.40;;;14.80;99.90;;;;;;5010644;28;21035;-74
2023/05/08 00:58:37;;;;;;;24.70;18.23;;;14.90;99.90;;;;;;5028877;28;20897;-75
2023/05/08 02:31:41;;;;;;;17.97;15.70;;;14.50;99.90;;;;;;5513595;23;20500;-75
2023/05/08 02:34:08;;;;;;;18.53;14.70;;;14.50;99.90;;;;;;5001013;28;20419;-74
2023/05/08 02:36:36;;;;;;;18.13;14.70;;;14.50;99.90;;;;;;5010416;28;20436;-76
2023/05/08 02:39:02;;;;;;;20.63;14.83;;;14.50;99.90;;;;;;4998241;28;20440;-74
2023/05/08 02:41:30;;;;;;;20.17;15.83;;;14.50;99.90;;;;;;5004234;28;20525;-75
2023/05/08 02:43:57;;;;;;;18.33;16.33;;;14.50;99.90;;;;;;5012964;28;20425;-75
2023/05/08 02:46:59;;;;;;;21.67;13.80;;;14.50;99.90;;;;;;5005141;28;21231;-76
2023/05/08 02:49:44;;;;;;;18.37;14.83;;;14.50;99.90;;;;;;5000918;28;20425;-73
2023/05/08 02:52:17;;;;;;;17.73;15.83;;;14.50;99.90;;;;;;4992451;28;20457;-76
2023/05/08 02:54:53;;;;;;;17.80;14.97;;;14.60;99.90;;;;;;4993364;28;20908;-75
2023/05/08 02:57:36;;;;;;;18.00;16.17;;;14.60;99.90;;;;;;5000572;28;20421;-75
2023/05/08 03:00:23;;;;;;;17.53;15.63;;;14.60;99.90;;;;;;5001302;28;20403;-74
2023/05/08 03:03:24;;;;;;;16.00;14.30;;;14.60;99.90;;;;;;4982048;28;20437;-76
2023/05/08 03:06:02;;;;;;;17.40;15.10;;;14.60;99.90;;;;;;5004072;28;20421;-74
2023/05/08 03:08:31;;;;;;;19.23;15.97;;;14.60;99.90;;;;;;5011813;28;20762;-72
2023/05/08 03:11:00;;;;;;;19.50;16.57;;;14.60;99.90;;;;;;5011475;28;20476;-73
2023/05/08 03:13:30;;;;;;;19.60;16.67;;;14.60;99.90;;;;;;5009360;28;20429;-73
2023/05/08 03:15:59;;;;;;;19.63;15.53;;;14.60;99.90;;;;;;4992402;28;20823;-75
2023/05/08 03:18:56;;;;;;;19.10;16.80;;;14.60;99.90;;;;;;5008104;28;20445;-74
2023/05/08 03:21:27;;;;;;;25.00;17.60;;;14.60;99.90;;;;;;4991690;28;20442;-75
2023/05/08 03:23:55;;;;;;;21.40;18.03;;;14.60;99.90;;;;;;5000984;28;20411;-74
2023/05/08 03:26:21;;;;;;;21.77;17.00;;;14.60;99.90;;;;;;4992688;28;20418;-74
2023/05/08 03:28:48;;;;;;;19.33;16.93;;;14.60;99.90;;;;;;4998234;28;20453;-73
2023/05/08 03:31:20;;;;;;;21.47;17.80;;;14.60;99.90;;;;;;4999815;28;20967;-74
2023/05/08 03:33:46;;;;;;;20.77;17.53;;;14.60;99.90;;;;;;5000956;28;20537;-73
2023/05/08 03:36:13;;;;;;;18.80;16.80;;;14.50;99.90;;;;;;4992341;28;21104;-75
2023/05/08 03:38:39;;;;;;;19.73;16.60;;;14.50;99.90;;;;;;5007557;28;20448;-74
2023/05/08 03:41:05;;;;;;;19.40;16.73;;;14.50;99.90;;;;;;4996429;28;20470;-73
2023/05/08 03:43:31;;;;;;;21.57;17.27;;;14.50;99.90;;;;;;5002952;28;20433;-74
2023/05/08 03:45:57;;;;;;;19.90;17.60;;;14.50;99.90;;;;;;5004174;28;20468;-74
2023/05/08 03:48:24;;;;;;;22.23;16.47;;;14.50;99.90;;;;;;5003165;28;20437;-75
2023/05/08 03:50:50;;;;;;;20.83;17.63;;;14.50;99.90;;;;;;4999987;28;20450;-75
2023/05/08 03:53:16;;;;;;;22.17;17.77;;;14.40;99.90;;;;;;4999679;28;20477;-75
2023/05/08 03:55:42;;;;;;;20.10;17.07;;;14.40;99.90;;;;;;5008419;28;20461;-73
2023/05/08 03:58:16;;;;;;;19.77;17.10;;;14.40;99.90;;;;;;4982542;28;20281;-73
2023/05/08 04:01:20;;;;;;;20.47;17.50;;;14.40;99.90;;;;;;5002016;28;20270;-74
2023/05/08 04:04:14;;;;;;;20.50;18.47;;;14.40;99.90;;;;;;5011393;28;20433;-72
2023/05/08 04:06:49;;;;;;;25.13;17.73;;;14.50;99.90;;;;;;5010356;28;20418;-74
2023/05/08 04:09:38;;;;;;;22.13;18.40;;;14.50;99.90;;;;;;4998768;28;20779;-74
2023/05/08 04:12:14;;;;;;;18.50;16.57;;;14.50;99.90;;;;;;5004592;28;20812;-74
2023/05/08 04:14:46;;;;;;;22.70;17.90;;;14.50;99.90;;;;;;5004009;28;20449;-73
2023/05/08 04:17:15;;;;;;;18.90;16.90;;;14.50;99.90;;;;;;4997844;28;20798;-73
2023/05/08 04:19:45;;;;;;;21.40;17.77;;;14.50;99.90;;;;;;4991490;28;20426;-73
2023/05/08 04:22:12;;;;;;;20.13;18.03;;;14.50;99.90;;;;;;4996787;28;20452;-74
2023/05/08 04:24:44;;;;;;;20.43;17.37;;;14.50;99.90;;;;;;5002802;28;20434;-73
2023/05/08 04:27:11;;;;;;;20.40;18.20;;;14.60;99.90;;;;;;5002750;28;20433;-72
2023/05/08 04:29:37;;;;;;;17.37;15.60;;;14.60;99.90;;;;;;5009712;28;21107;-73
2023/05/08 04:32:04;;;;;;;20.03;17.83;;;14.60;99.90;;;;;;4994953;28;20471;-72
2023/05/08 04:34:30;;;;;;;19.70;17.27;;;14.60;99.90;;;;;;5002333;28;20210;-73
2023/05/08 04:36:56;;;;;;;17.07;15.23;;;14.70;99.90;;;;;;4991271;28;20465;-73
2023/05/08 04:39:21;;;;;;;16.40;14.80;;;14.80;99.90;;;;;;4990521;28;20187;-72
2023/05/08 04:41:49;;;;;;;19.67;15.30;;;14.70;99.90;;;;;;4989745;28;20219;-73
2023/05/08 04:44:15;;;;;;;17.13;15.33;;;14.80;99.90;;;;;;4990933;28;20207;-73
2023/05/08 04:46:41;;;;;;;14.43;12.93;;;14.80;99.90;;;;;;5007282;28;20460;-73
2023/05/08 04:49:06;;;;;;;17.80;13.70;;;14.80;99.90;;;;;;4990107;28;20190;-71
2023/05/08 04:51:32;;;;;;;17.57;15.30;;;14.80;99.90;;;;;;4990106;28;20203;-71
2023/05/08 04:53:57;;;;;;;17.63;15.60;;;14.80;99.90;;;;;;5006966;28;20179;-73
2023/05/08 04:56:23;;;;;;;15.80;13.50;;;14.80;99.90;;;;;;5006099;28;20625;-73
2023/05/08 04:58:49;;;;;;;15.60;14.07;;;14.80;99.90;;;;;;5009758;28;20631;-72
2023/05/08 05:01:15;;;;;;;14.50;13.00;;;14.80;99.90;;;;;;5009646;28;20244;-73
2023/05/08 05:03:41;;;;;;;13.30;12.03;;;14.80;99.90;;;;;;5010123;28;20418;-72
2023/05/08 05:06:06;;;;;;;14.83;13.33;;;14.80;99.90;;;;;;4997258;28;20437;-71
2023/05/08 05:08:32;;;;;;;15.07;13.50;;;14.80;99.90;;;;;;5006404;28;20187;-73
2023/05/08 05:10:57;;;;;;;15.00;12.90;;;14.90;99.90;;;;;;5009510;28;20590;-73
2023/05/08 05:13:23;;;;;;;19.60;16.27;;;14.80;99.90;;;;;;5010039;28;20197;-72
2023/05/08 05:15:51;;;;;;;14.97;13.47;;;14.90;99.90;;;;;;5010184;28;20204;-73
2023/05/08 05:18:17;;;;;;;15.37;13.77;;;14.90;99.90;;;;;;5009699;28;20260;-73
2023/05/08 05:20:42;;;;;;;16.60;14.93;;;14.90;99.90;;;;;;5009896;28;20498;-72
2023/05/08 05:23:08;;;;;;;18.37;15.30;;;14.90;99.90;;;;;;4996620;28;20184;-72
2023/05/08 05:25:33;;;;;;;16.80;15.20;;;15.00;99.90;;;;;;4990230;28;20191;-71
2023/05/08 05:27:59;;;;;;;15.27;13.67;;;15.00;99.90;;;;;;4984577;28;20179;-73
2023/05/08 05:30:24;;;;;;;14.23;12.90;;;15.00;99.90;;;;;;4994256;28;20226;-72
2023/05/08 05:32:50;;;;;;;13.60;12.30;;;15.10;99.90;;;;;;4989747;28;20203;-73
2023/05/08 05:35:15;;;;;;;14.70;13.30;;;15.10;99.90;;;;;;4998549;28;20250;-74
2023/05/08 05:37:41;;;;;;;14.30;12.80;;;15.10;99.90;;;;;;4997935;28;20261;-74
2023/05/08 05:40:07;;;;;;;13.47;12.17;;;15.00;99.90;;;;;;4989379;28;20211;-72
2023/05/08 05:42:33;;;;;;;14.33;12.83;;;15.10;99.90;;;;;;4997850;28;20294;-73
2023/05/08 05:44:58;;;;;;;14.60;13.13;;;15.10;99.90;;;;;;5001664;28;20509;-74
2023/05/08 05:47:24;;;;;;;17.40;13.80;;;15.10;99.90;;;;;;5009757;28;20194;-73
2023/05/08 05:49:49;;;;;;;15.33;13.60;;;15.10;99.90;;;;;;5001683;28;20644;-73
2023/05/08 05:52:15;;;;;;;16.00;14.33;;;15.10;99.90;;;;;;5003887;28;20286;-74
2023/05/08 05:54:41;;;;;;;13.57;12.17;;;15.10;99.90;;;;;;4993464;28;20238;-74
2023/05/08 05:57:06;;;;;;;14.83;12.53;;;15.10;99.90;;;;;;4998241;28;20237;-73
2023/05/08 05:59:32;;;;;;;13.37;11.97;;;15.10;99.90;;;;;;5013563;28;20504;-73
2023/05/08 06:01:58;;;;;;;14.00;12.63;;;15.10;99.90;;;;;;4996498;28;20202;-74
2023/05/08 06:04:23;;;;;;;13.73;12.33;;;15.10;99.90;;;;;;5006874;28;20183;-73
2023/05/08 06:06:49;;;;;;;16.33;12.33;;;15.10;99.90;;;;;;5003750;28;20187;-73
2023/05/08 06:09:15;;;;;;;13.93;12.70;;;15.10;99.90;;;;;;5013020;28;20643;-74
2023/05/08 06:11:41;;;;;;;14.17;12.23;;;15.10;99.90;;;;;;5012545;28;20202;-73
2023/05/08 06:14:06;;;;;;;31.37;19.20;;;15.20;99.90;;;;;;5005294;28;20174;-72
2023/05/08 06:16:32;;;;;;;14.33;12.83;;;15.10;99.90;;;;;;4979940;28;20548;-74
2023/05/08 06:18:57;;;;;;;17.83;13.83;;;15.00;99.90;;;;;;5004226;28;20175;-73
2023/05/08 06:21:23;;;;;;;16.83;12.60;;;15.00;99.90;;;;;;5006256;28;20636;-73
2023/05/08 06:23:49;;;;;;;25.13;13.60;;;15.00;99.90;;;;;;5001398;28;20207;-74
2023/05/08 06:26:14;;;;;;;14.80;12.93;;;15.00;99.90;;;;;;5001895;28;20234;-74
2023/05/08 06:28:40;;;;;;;14.00;12.20;;;15.00;99.90;;;;;;5001494;28;20286;-73
2023/05/08 06:31:05;;;;;;;14.03;12.57;;;15.00;99.90;;;;;;5004151;28;20306;-72
2023/05/08 06:33:31;;;;;;;13.90;12.50;;;15.00;99.90;;;;;;5005649;28;20207;-73
2023/05/08 06:35:56;;;;;;;14.57;12.77;;;15.10;99.90;;;;;;5004363;28;20214;-74
2023/05/08 06:38:22;;;;;;;15.70;14.10;;;15.00;99.90;;;;;;4998185;28;20176;-73
2023/05/08 06:40:49;;;;;;;14.20;12.80;;;14.90;99.90;;;;;;4994462;28;20672;-73
2023/05/08 06:43:15;;;;;;;14.93;13.53;;;15.00;99.90;;;;;;5007282;28;20183;-74
2023/05/08 06:45:43;;;;;;;14.70;13.23;;;14.90;99.90;;;;;;5000598;28;21202;-74
2023/05/08 06:48:08;;;;;;;14.07;12.67;;;14.90;99.90;;;;;;5000324;28;20180;-75
2023/05/08 06:50:38;;;;;;;17.60;15.13;;;14.90;99.90;;;;;;5000535;28;20414;-74
2023/05/08 06:53:04;;;;;;;17.83;13.20;;;15.00;99.90;;;;;;4991149;28;20206;-74
2023/05/08 06:55:29;;;;;;;15.17;13.57;;;14.90;99.90;;;;;;5001183;28;20474;-74
2023/05/08 06:57:55;;;;;;;14.73;13.10;;;14.90;99.90;;;;;;5011053;28;20429;-74
2023/05/08 07:00:20;;;;;;;14.50;13.03;;;14.90;99.90;;;;;;4998706;28;20167;-73
2023/05/08 07:02:46;;;;;;;14.57;13.10;;;15.00;99.90;;;;;;4992318;28;20548;-73
2023/05/08 07:05:11;;;;;;;18.23;12.57;;;15.00;99.90;;;;;;5005105;28;20191;-74
2023/05/08 07:07:37;;;;;;;18.73;12.70;;;15.00;99.90;;;;;;5012036;28;20181;-73
2023/05/08 07:10:02;;;;;;;14.30;12.90;;;15.00;99.90;;;;;;5004304;28;20368;-74
2023/05/08 07:12:28;;;;;;;15.50;14.00;;;14.90;99.90;;;;;;5004955;28;20203;-73
2023/05/08 07:14:54;;;;;;;15.43;13.93;;;14.90;99.90;;;;;;5008995;28;20293;-74
2023/05/08 07:17:19;;;;;;;17.43;15.53;;;14.90;99.90;;;;;;5000588;28;20185;-74
2023/05/08 07:19:49;;;;;;;14.40;13.10;;;14.90;99.90;;;;;;4992359;28;20183;-71
2023/05/08 07:22:15;;;;;;;14.10;12.80;;;15.00;99.90;;;;;;4987559;28;20190;-74
2023/05/08 07:24:41;;;;;;;16.83;15.03;;;14.90;99.90;;;;;;5004102;28;20437;-73
2023/05/08 07:27:07;;;;;;;14.97;13.50;;;15.00;99.90;;;;;;5011542;28;20635;-73
2023/05/08 07:29:34;;;;;;;18.67;15.60;;;15.00;99.90;;;;;;5003351;28;20663;-74
2023/05/08 07:32:00;;;;;;;15.20;13.63;;;15.00;99.90;;;;;;4991994;28;20465;-74
2023/05/08 07:34:26;;;;;;;14.80;13.10;;;15.10;99.90;;;;;;4992043;28;20411;-74
2023/05/08 07:36:52;;;;;;;14.57;12.77;;;15.20;99.90;;;;;;4991386;28;20229;-74
2023/05/08 07:39:17;;;;;;;15.03;12.30;;;15.30;99.90;;;;;;4991997;28;20430;-75
2023/05/08 07:41:44;;;;;;;14.67;13.17;;;15.40;99.90;;;;;;4991041;28;20195;-72
2023/05/08 07:44:10;;;;;;;14.07;12.70;;;15.50;99.90;;;;;;4985952;28;20166;-74
2023/05/08 07:46:36;;;;;;;13.93;12.53;;;15.50;99.90;;;;;;5004159;28;20903;-75
2023/05/08 07:49:01;;;;;;;12.50;11.30;;;15.60;99.90;;;;;;5010479;28;20209;-72
2023/05/08 07:51:27;;;;;;;14.83;13.53;;;15.60;99.90;;;;;;5010712;28;20438;-73
2023/05/08 07:53:53;;;;;;;13.97;12.57;;;15.60;99.90;;;;;;5001936;28;20690;-74
2023/05/08 07:56:21;;;;;;;13.23;11.33;;;15.60;99.90;;;;;;4991818;28;20187;-75
2023/05/08 07:58:46;;;;;;;15.43;11.27;;;15.60;99.90;;;;;;5000004;28;20417;-73
2023/05/08 08:01:12;;;;;;;12.80;11.60;;;15.50;99.90;;;;;;5010707;28;20438;-74
2023/05/08 08:03:38;;;;;;;18.67;12.73;;;15.40;99.90;;;;;;5003411;28;20269;-75
2023/05/08 08:06:04;;;;;;;13.63;12.30;;;15.40;99.90;;;;;;5007911;28;20206;-75
2023/05/08 08:08:29;;;;;;;13.73;12.43;;;15.40;99.90;;;;;;5005574;28;20926;-74
2023/05/08 08:10:55;;;;;;;15.60;12.93;;;15.40;99.90;;;;;;5008916;28;20210;-75
2023/05/08 08:13:20;;;;;;;18.80;15.00;;;15.40;99.90;;;;;;4999121;28;20224;-74
2023/05/08 08:15:46;;;;;;;15.90;14.30;;;15.30;99.90;;;;;;4999274;28;20245;-73
2023/05/08 08:18:11;;;;;;;17.27;13.30;;;15.40;99.90;;;;;;5010934;28;20218;-73
2023/05/08 08:20:37;;;;;;;15.70;14.20;;;15.40;99.90;;;;;;5002233;28;20585;-74
2023/05/08 08:23:03;;;;;;;15.40;13.87;;;15.30;99.90;;;;;;4993969;28;20233;-74
2023/05/08 08:25:28;;;;;;;14.80;13.30;;;15.30;99.90;;;;;;5002708;28;20228;-73
2023/05/08 08:27:54;;;;;;;14.63;13.07;;;15.40;99.90;;;;;;5001905;28;20174;-73
2023/05/08 08:30:19;;;;;;;16.23;14.67;;;15.40;99.90;;;;;;4991516;28;20182;-74
2023/05/08 08:32:45;;;;;;;16.57;14.90;;;15.50;99.90;;;;;;4998278;28;20241;-72
2023/05/08 08:35:11;;;;;;;15.53;14.00;;;15.50;99.90;;;;;;4991279;28;20199;-74
2023/05/08 08:37:37;;;;;;;15.70;14.17;;;15.60;99.90;;;;;;4993401;28;20191;-74
2023/05/08 08:40:02;;;;;;;16.77;15.17;;;15.70;99.90;;;;;;5001648;28;20190;-74
2023/05/08 08:42:28;;;;;;;20.60;14.63;;;15.80;99.90;;;;;;5003507;28;20329;-74
2023/05/08 08:44:54;;;;;;;15.17;13.57;;;15.80;99.90;;;;;;4991017;28;20183;-74
2023/05/08 08:47:26;;;;;;;17.00;15.20;;;15.90;99.90;;;;;;4990647;28;20249;-74
2023/05/08 08:49:52;;;;;;;16.00;14.10;;;16.00;99.90;;;;;;4990756;28;20426;-73
2023/05/08 08:52:23;;;;;;;16.77;15.13;;;16.00;99.90;;;;;;4990505;28;20441;-73
2023/05/08 08:54:50;;;;;;;17.43;14.27;;;16.10;99.90;;;;;;4990312;28;21041;-73
2023/05/08 08:57:17;;;;;;;15.30;13.80;;;16.10;99.90;;;;;;4993720;28;20755;-74
2023/05/08 08:59:43;;;;;;;17.10;15.30;;;16.00;99.90;;;;;;5001953;28;20973;-74
2023/05/08 09:02:13;;;;;;;16.37;14.70;;;16.00;99.90;;;;;;4998171;28;20469;-75
2023/05/08 09:04:38;;;;;;;15.30;13.70;;;16.00;99.90;;;;;;4990123;28;20429;-75
2023/05/08 09:07:07;;;;;;;16.40;13.90;;;15.90;99.90;;;;;;4998471;28;20418;-75
2023/05/08 09:09:34;;;;;;;16.50;14.40;;;15.80;99.90;;;;;;4990213;28;20168;-75
2023/05/08 09:12:00;;;;;;;15.43;13.93;;;15.90;99.90;;;;;;4997854;28;20835;-75
2023/05/08 09:14:25;;;;;;;15.67;13.97;;;15.90;99.90;;;;;;4990327;28;20417;-73
2023/05/08 09:16:53;;;;;;;16.93;15.07;;;16.00;99.90;;;;;;5006472;28;20190;-74
2023/05/08 09:19:19;;;;;;;15.53;14.10;;;16.10;99.90;;;;;;4990046;28;20171;-74
2023/05/08 09:21:45;;;;;;;17.20;15.20;;;16.10;99.90;;;;;;5005550;28;20445;-73
2023/05/08 09:24:11;;;;;;;17.23;14.03;;;16.20;99.90;;;;;;4990475;28;20541;-74
2023/05/08 09:26:38;;;;;;;14.67;13.17;;;16.30;99.90;;;;;;4990708;28;20187;-74
2023/05/08 09:29:10;;;;;;;13.27;11.90;;;16.30;99.90;;;;;;5003744;28;20417;-74
2023/05/08 09:31:39;;;;;;;13.17;11.87;;;16.40;99.90;;;;;;5001543;28;20458;-74
2023/05/08 09:34:06;;;;;;;13.10;11.10;;;16.50;99.90;;;;;;5012817;28;20421;-75
2023/05/08 09:36:33;;;;;;;13.20;11.90;;;16.50;99.90;;;;;;4988312;28;20457;-73
2023/05/08 09:38:59;;;;;;;12.87;11.10;;;16.50;99.90;;;;;;5005081;28;20887;-76
2023/05/08 09:41:25;;;;;;;12.90;11.60;;;16.60;99.90;;;;;;5005028;28;20444;-74
2023/05/08 09:44:02;;;;;;;13.63;12.07;;;16.70;99.90;;;;;;5006326;28;20185;-74
2023/05/08 09:46:29;;;;;;;10.33;9.33;;;16.90;99.90;;;;;;5013091;28;20429;-74
2023/05/08 09:48:56;;;;;;;12.43;10.73;;;17.00;99.90;;;;;;4997413;28;20780;-76
2023/05/08 09:51:23;;;;;;;11.53;10.33;;;17.10;99.90;;;;;;5004767;28;20434;-74
2023/05/08 09:53:56;;;;;;;13.30;9.20;;;17.20;99.90;;;;;;5013942;28;20413;-74
2023/05/08 09:56:35;;;;;;;12.53;11.13;;;17.20;99.90;;;;;;4994040;28;20529;-74
2023/05/08 09:59:02;;;;;;;10.63;9.73;;;17.30;99.90;;;;;;5011014;28;20832;-73
2023/05/08 10:01:34;;;;;;;12.17;9.23;;;17.10;99.90;;;;;;5011399;28;20949;-74
2023/05/08 10:04:00;;;;;;;9.40;8.53;;;17.20;99.90;;;;;;5003917;28;20506;-75
2023/05/08 10:06:27;;;;;;;10.73;9.73;;;17.20;99.90;;;;;;4993158;28;20518;-72
2023/05/08 10:09:14;;;;;;;11.80;9.57;;;17.10;99.90;;;;;;4993679;28;20184;-75
2023/05/08 10:11:41;;;;;;;11.33;9.87;;;17.20;99.90;;;;;;4990285;28;20969;-74
2023/05/08 10:14:07;;;;;;;11.37;10.00;;;17.30;99.90;;;;;;4985477;28;20441;-73
2023/05/08 10:16:53;;;;;;;13.47;10.73;;;17.40;99.90;;;;;;5007730;28;20465;-75
2023/05/08 10:19:24;;;;;;;10.57;9.40;;;17.50;99.90;;;;;;4993320;28;20430;-73
2023/05/08 10:21:52;;;;;;;14.50;11.20;;;17.60;99.90;;;;;;4992962;28;20961;-74
2023/05/08 10:24:31;;;;;;;14.23;10.70;;;17.80;99.90;;;;;;4993773;28;20414;-74
2023/05/08 10:27:16;;;;;;;11.73;10.63;;;18.00;99.90;;;;;;5002481;28;20421;-75
2023/05/08 10:29:51;;;;;;;11.60;10.40;;;18.10;99.90;;;;;;5004998;28;20417;-73
2023/05/08 10:32:19;;;;;;;11.10;9.97;;;18.30;99.90;;;;;;5009283;28;20453;-74
2023/05/08 10:34:55;;;;;;;11.30;9.50;;;18.40;99.90;;;;;;5008741;28;20457;-72
2023/05/08 10:37:21;;;;;;;11.50;10.20;;;18.50;99.90;;;;;;5012481;28;20421;-75
2023/05/08 10:39:47;;;;;;;11.57;9.53;;;18.40;99.90;;;;;;5004361;28;20457;-75
2023/05/08 10:42:13;;;;;;;11.40;10.03;;;18.30;99.90;;;;;;5000862;28;20294;-75
2023/05/08 10:44:39;;;;;;;10.43;9.33;;;18.40;99.90;;;;;;4992885;28;20517;-75
2023/05/08 10:47:04;;;;;;;10.33;9.33;;;18.30;99.90;;;;;;5010750;28;20201;-73
2023/05/08 10:49:55;;;;;;;12.10;9.53;;;18.40;99.90;;;;;;5012363;28;20182;-74
2023/05/08 10:52:38;;;;;;;11.87;10.20;;;18.50;99.90;;;;;;4999896;28;20261;-75
2023/05/08 10:55:21;;;;;;;10.70;9.27;;;18.30;99.90;;;;;;5002744;28;21001;-75
2023/05/08 10:58:09;;;;;;;12.43;10.30;;;18.30;99.90;;;;;;5003944;28;20406;-73
2023/05/08 11:01:02;;;;;;;10.40;9.30;;;18.30;99.90;;;;;;4992610;28;20797;-75
2023/05/08 11:03:29;;;;;;;10.97;9.03;;;18.20;99.90;;;;;;4992684;28;21022;-74
2023/05/08 11:05:56;;;;;;;11.00;9.63;;;18.30;99.90;;;;;;5009137;28;20426;-74
2023/05/08 11:08:24;;;;;;;10.73;9.60;;;18.50;99.90;;;;;;5012123;28;20934;-74
2023/05/08 11:11:03;;;;;;;10.77;9.27;;;18.60;99.90;;;;;;5003751;28;20930;-75
2023/05/08 11:13:38;;;;;;;13.17;9.20;;;18.70;99.90;;;;;;5003314;28;20417;-74
2023/05/08 11:16:09;;;;;;;11.40;9.77;;;19.00;99.90;;;;;;5002405;28;20465;-75
2023/05/08 11:18:35;;;;;;;8.83;8.00;;;19.30;99.90;;;;;;5000172;28;20406;-75
2023/05/08 11:21:03;;;;;;;10.10;8.53;;;19.50;99.90;;;;;;4991430;28;20589;-75
2023/05/08 11:23:35;;;;;;;9.37;8.23;;;19.60;99.90;;;;;;5004945;28;20207;-75
2023/05/08 11:26:04;;;;;;;7.13;6.40;;;19.50;99.90;;;;;;4995413;28;20421;-75
2023/05/08 11:28:37;;;;;;;6.80;6.30;;;19.20;99.90;;;;;;4994087;28;20410;-73
2023/05/08 11:31:07;;;;;;;6.63;5.70;;;19.20;99.90;;;;;;4991183;28;20465;-74
2023/05/08 11:33:36;;;;;;;7.20;6.30;;;19.30;99.90;;;;;;5005232;28;21072;-74
2023/05/08 11:36:12;;;;;;;13.40;7.07;;;19.30;99.90;;;;;;5011769;28;20507;-74
2023/05/08 11:38:38;;;;;;;9.17;8.27;;;19.50;99.90;;;;;;5011519;28;20417;-73
2023/05/08 11:41:09;;;;;;;10.73;8.93;;;19.70;99.90;;;;;;4996478;28;20489;-74
2023/05/08 11:43:56;;;;;;;9.77;8.03;;;19.90;99.90;;;;;;4991423;28;20522;-74
2023/05/08 11:46:22;;;;;;;10.67;8.30;;;20.30;99.90;;;;;;4992141;28;20403;-75
2023/05/08 11:48:48;;;;;;;10.53;7.80;;;20.50;99.90;;;;;;4998437;28;20440;-73
2023/05/08 11:51:16;;;;;;;8.50;7.70;;;20.80;99.90;;;;;;5010560;28;20285;-74
2023/05/08 11:53:43;;;;;;;9.73;8.37;;;20.90;99.90;;;;;;5011294;28;20186;-73
2023/05/08 11:56:08;;;;;;;10.60;9.50;;;21.20;99.90;;;;;;5011356;28;20830;-74
2023/05/08 11:58:35;;;;;;;8.30;7.60;;;21.20;99.90;;;;;;5011046;28;20433;-74
2023/05/08 12:01:01;;;;;;;9.33;8.43;;;21.20;99.90;;;;;;5010373;28;20293;-73
2023/05/08 12:03:26;;;;;;;8.07;7.27;;;21.10;99.90;;;;;;5007053;28;20569;-72
2023/05/08 12:05:56;;;;;;;9.00;8.20;;;21.00;99.90;;;;;;4992079;28;20179;-74
2023/05/08 12:08:22;;;;;;;9.60;8.70;;;20.90;99.90;;;;;;5002907;28;20179;-74
2023/05/08 12:10:52;;;;;;;14.20;7.80;;;21.00;99.90;;;;;;5010999;28;21004;-73
2023/05/08 12:13:19;;;;;;;9.73;8.73;;;21.20;99.90;;;;;;4999438;28;20530;-74
2023/05/08 12:15:50;;;;;;;9.20;8.30;;;21.30;99.90;;;;;;4991370;28;20457;-72
2023/05/08 12:18:16;;;;;;;8.63;7.73;;;21.30;99.90;;;;;;4993566;28;20441;-73
2023/05/08 12:20:43;;;;;;;8.93;8.13;;;21.40;99.90;;;;;;5010668;28;20878;-74
2023/05/08 12:23:21;;;;;;;;;;;;;;;;;;;;;
2023/05/08 12:25:52;;;;;;;9.87;8.87;;;21.30;99.90;;;;;;4991489;28;20433;-74
2023/05/08 12:28:18;;;;;;;9.57;8.60;;;21.00;99.90;;;;;;4983005;28;20582;-74
2023/05/08 12:30:44;;;;;;;9.13;8.17;;;20.90;99.90;;;;;;4981944;28;21256;-73
2023/05/08 12:33:10;;;;;;;8.60;7.80;;;20.90;99.90;;;;;;5009096;28;20550;-72
2023/05/08 12:35:37;;;;;;;10.10;6.93;;;20.80;99.90;;;;;;4985793;28;20197;-74
2023/05/08 12:38:11;;;;;;;7.73;7.10;;;20.80;99.90;;;;;;4979672;28;20882;-71
2023/05/08 12:40:42;;;;;;;9.43;8.37;;;20.80;99.90;;;;;;4997632;28;20504;-72
2023/05/08 12:43:09;;;;;;;7.50;5.50;;;20.80;99.90;;;;;;5001556;28;20441;-70
2023/05/08 12:45:39;;;;;;;7.87;7.10;;;20.60;99.90;;;;;;5005289;28;20806;-73
2023/05/08 12:48:09;;;;;;;9.77;8.07;;;20.70;99.90;;;;;;5008001;28;21021;-75
2023/05/08 12:50:36;;;;;;;7.17;6.33;;;20.60;99.90;;;;;;5002420;28;21040;-72
2023/05/08 12:53:07;;;;;;;7.30;6.70;;;20.70;99.90;;;;;;4992347;28;20458;-74
2023/05/08 12:55:37;;;;;;;5.93;5.43;;;20.70;99.90;;;;;;4995161;28;20562;-77
2023/05/08 12:58:12;;;;;;;12.90;11.47;;;20.70;99.90;;;;;;5009334;28;20453;-75
2023/05/08 13:00:46;;;;;;;14.47;12.93;;;20.60;99.90;;;;;;5009080;28;21173;-77
2023/05/08 13:03:22;;;;;;;14.23;12.83;;;20.50;99.90;;;;;;4998026;28;21122;-76
2023/05/08 13:05:48;;;;;;;12.93;11.63;;;20.30;99.90;;;;;;4997117;28;20425;-77
2023/05/08 13:08:14;;;;;;;17.03;13.90;;;20.00;99.90;;;;;;5009845;28;21012;-76
2023/05/08 13:10:50;;;;;;;17.93;16.10;;;19.80;99.90;;;;;;5004662;28;20274;-72
2023/05/08 13:13:25;;;;;;;16.10;13.43;;;19.50;99.90;;;;;;4989675;28;20551;-73
2023/05/08 13:15:52;;;;;;;17.17;14.03;;;19.50;99.90;;;;;;4990419;28;20478;-74
2023/05/08 13:18:19;;;;;;;15.20;13.73;;;19.30;99.90;;;;;;4990182;28;20430;-73
2023/05/08 13:20:47;;;;;;;14.67;13.23;;;19.10;99.90;;;;;;4990119;28;20449;-73
2023/05/08 13:23:13;;;;;;;15.70;14.10;;;19.00;99.90;;;;;;4989825;28;20481;-74
2023/05/08 13:25:39;;;;;;;15.57;14.13;;;18.90;99.90;;;;;;4990187;28;20434;-72
2023/05/08 13:28:08;;;;;;;19.27;15.83;;;18.80;99.90;;;;;;4993335;28;20290;-74
2023/05/08 13:30:35;;;;;;;15.80;14.20;;;18.70;99.90;;;;;;4989799;28;20477;-73
2023/05/08 13:33:01;;;;;;;15.10;13.70;;;18.60;99.90;;;;;;4989831;28;20513;-74
2023/05/08 13:35:27;;;;;;;17.47;15.53;;;18.60;99.90;;;;;;4990313;28;20831;-73
2023/05/08 13:37:53;;;;;;;16.37;14.50;;;18.50;99.90;;;;;;4990125;28;20414;-74
2023/05/08 13:40:19;;;;;;;14.07;12.63;;;18.40;99.90;;;;;;4990503;28;20270;-72
2023/05/08 13:42:45;;;;;;;14.60;13.10;;;18.30;99.90;;;;;;4989510;28;20517;-74
2023/05/08 13:45:13;;;;;;;15.60;13.93;;;18.20;99.90;;;;;;4991412;28;20430;-74
2023/05/08 13:47:39;;;;;;;18.10;13.40;;;18.20;99.90;;;;;;5009610;28;20186;-72
2023/05/08 13:50:06;;;;;;;15.53;13.93;;;18.10;99.90;;;;;;5009550;28;20937;-74
2023/05/08 13:52:31;;;;;;;15.43;13.83;;;18.00;99.90;;;;;;5005232;28;20484;-74
2023/05/08 13:54:57;;;;;;;15.53;13.80;;;17.90;99.90;;;;;;4989976;28;20938;-73
2023/05/08 13:57:23;;;;;;;17.67;13.00;;;17.80;99.90;;;;;;4992454;28;21810;-74
2023/05/08 13:59:49;;;;;;;28.77;18.83;;;17.70;99.90;;;;;;5009299;28;20178;-74
2023/05/08 14:02:14;;;;;;;24.67;19.07;;;17.50;99.90;;;;;;5009110;28;20957;-74
2023/05/08 14:04:40;;;;;;;20.50;17.43;;;17.20;99.90;;;;;;5009369;28;20171;-73
2023/05/08 14:07:05;;;;;;;24.77;20.07;;;17.00;99.90;;;;;;5009417;28;20264;-74